createdAt,value
2022-11-25T00:02:59.361Z,8.18
2022-11-25T00:08:01.095Z,8.20
2022-11-25T00:13:03.909Z,8.35
2022-11-25T00:18:05.653Z,8.88
2022-11-25T00:23:07.305Z,6.53
2022-11-25T00:28:08.967Z,7.05
2022-11-25T00:33:10.632Z,7.75
2022-11-25T00:38:12.295Z,7.15
2022-11-25T00:43:32.504Z,7.28
2022-11-25T00:48:34.172Z,8.30
2022-11-25T00:53:35.853Z,7.93
2022-11-25T00:58:37.676Z,7.82
2022-11-25T01:03:39.586Z,8.18
2022-11-25T01:08:41.379Z,7.50
2022-11-25T01:13:43.142Z,8.10
2022-11-25T01:18:45.436Z,8.00
2022-11-25T01:23:48.617Z,6.95
2022-11-25T01:28:55.010Z,6.75
2022-11-25T01:34:00.193Z,7.47
2022-11-25T01:39:01.921Z,6.93
2022-11-25T01:44:21.019Z,7.47
2022-11-25T01:49:29.172Z,8.50
2022-11-25T01:54:35.621Z,8.63
2022-11-25T01:59:41.994Z,7.72
2022-11-25T02:04:44.927Z,7.57
2022-11-25T02:09:47.503Z,8.93
2022-11-25T02:14:51.985Z,7.05
2022-11-25T02:20:01.374Z,7.55
2022-11-25T02:25:22.284Z,6.45
2022-11-25T02:30:24.121Z,7.47
2022-11-25T02:35:30.948Z,6.53
2022-11-25T02:40:36.360Z,5.72
2022-11-25T02:45:53.022Z,5.57
2022-11-25T02:50:55.578Z,4.85
2022-11-25T02:55:57.350Z,5.30
2022-11-25T03:00:59.104Z,5.10
2022-11-25T03:06:01.136Z,5.30
2022-11-25T03:11:02.867Z,4.30
2022-11-25T03:16:05.071Z,4.45
2022-11-25T03:21:07.515Z,4.60
2022-11-25T03:26:10.025Z,4.30
2022-11-25T03:31:12.284Z,4.72
2022-11-25T03:36:14.113Z,3.38
2022-11-25T03:41:15.908Z,4.07
2022-11-25T03:46:18.658Z,3.83
2022-11-25T03:51:21.287Z,4.22
2022-11-25T03:56:23.762Z,4.07
2022-11-25T04:01:25.662Z,3.92
2022-11-25T04:06:27.567Z,3.47
2022-11-25T04:11:48.380Z,3.13
2022-11-25T04:16:50.774Z,4.03
2022-11-25T04:21:53.227Z,3.22
2022-11-25T04:26:55.340Z,3.25
2022-11-25T04:31:57.041Z,3.25
2022-11-25T04:36:59.356Z,3.40
2022-11-25T04:42:20.300Z,2.97
2022-11-25T04:47:22.079Z,2.03
2022-11-25T04:52:24.415Z,3.30
2022-11-25T04:57:27.673Z,3.33
2022-11-25T05:02:29.804Z,3.28
2022-11-25T05:07:40.840Z,3.58
2022-11-25T05:12:42.799Z,2.97
2022-11-25T05:17:48.310Z,3.65
2022-11-25T05:22:54.420Z,4.05
2022-11-25T05:27:57.396Z,4.30
2022-11-25T05:32:59.254Z,4.07
2022-11-25T05:38:04.044Z,3.50
2022-11-25T05:43:06.045Z,6.10
2022-11-25T05:48:10.610Z,4.78
2022-11-25T05:53:12.554Z,4.25
2022-11-25T05:58:16.051Z,5.35
2022-11-25T06:03:26.103Z,6.45
2022-11-25T06:08:28.449Z,5.90
2022-11-25T06:13:32.285Z,6.65
2022-11-25T06:18:34.082Z,6.60
2022-11-25T06:23:38.847Z,5.82
2022-11-25T06:28:40.731Z,8.15
2022-11-25T06:33:43.223Z,8.05
2022-11-25T06:38:51.948Z,7.35
2022-11-25T06:43:53.645Z,6.60
2022-11-25T06:48:55.380Z,6.20
2022-11-25T06:53:57.099Z,5.68
2022-11-25T06:58:58.805Z,10.30
2022-11-25T07:04:03.802Z,14.43
2022-11-25T07:09:06.199Z,15.15
2022-11-25T07:14:13.259Z,11.40
2022-11-25T07:19:16.910Z,8.40
2022-11-25T07:24:18.788Z,8.30
2022-11-25T07:29:51.577Z,6.50
2022-11-25T07:34:42.702Z,8.65
2022-11-25T07:39:44.391Z,8.63
2022-11-25T07:44:46.081Z,7.28
2022-11-25T07:50:26.258Z,7.57
2022-11-25T07:55:27.995Z,10.55
2022-11-25T08:00:29.679Z,6.40
2022-11-25T08:05:33.404Z,5.65
2022-11-25T08:10:35.122Z,7.85
2022-11-25T08:15:36.838Z,6.97
2022-11-25T08:20:38.629Z,10.57
2022-11-25T08:25:43.018Z,18.13
2022-11-25T08:30:47.993Z,10.60
2022-11-25T08:35:55.672Z,8.77
2022-11-25T08:40:57.788Z,8.13
2022-11-25T08:45:59.548Z,10.15
2022-11-25T08:51:01.257Z,11.52
2022-11-25T08:56:03.008Z,5.18
2022-11-25T09:01:06.765Z,10.07
2022-11-25T09:06:09.572Z,7.60
2022-11-25T09:11:12.044Z,7.30
2022-11-25T09:16:15.273Z,7.70
2022-11-25T09:21:17.926Z,7.05
2022-11-25T09:26:25.618Z,6.75
2022-11-25T09:31:27.470Z,9.57
2022-11-25T09:36:29.202Z,7.88
2022-11-25T09:42:15.030Z,9.57
2022-11-25T09:47:48.325Z,8.45
2022-11-25T09:53:40.058Z,5.40
2022-11-25T09:59:13.755Z,4.82
2022-11-25T10:04:25.994Z,4.80
2022-11-25T10:09:34.666Z,3.90
2022-11-25T10:14:46.614Z,3.90
2022-11-25T10:19:56.826Z,3.00
2022-11-25T10:25:02.150Z,2.25
2022-11-25T10:30:15.442Z,3.55
2022-11-25T10:35:39.141Z,2.28
2022-11-25T10:40:45.217Z,2.75
2022-11-25T10:45:57.393Z,2.58
2022-11-25T10:51:29.293Z,2.70
2022-11-25T10:56:30.995Z,2.38
2022-11-25T11:01:32.741Z,2.47
2022-11-25T11:06:42.446Z,2.45
2022-11-25T11:11:49.289Z,2.25
2022-11-25T11:16:55.777Z,2.55
2022-11-25T11:22:15.986Z,2.70
2022-11-25T11:27:25.469Z,2.63
2022-11-25T11:32:29.163Z,1.85
2022-11-25T11:37:45.927Z,2.30
2022-11-25T11:43:02.813Z,2.38
2022-11-25T11:48:30.851Z,2.70
2022-11-25T11:54:30.841Z,2.30
2022-11-25T12:00:00.216Z,2.13
2022-11-25T12:05:12.910Z,2.03
2022-11-25T12:10:14.546Z,2.22
2022-11-25T12:15:37.735Z,2.13
2022-11-25T12:20:57.492Z,1.65
2022-11-25T12:26:06.138Z,2.17
2022-11-25T12:31:47.685Z,2.10
2022-11-25T12:36:49.412Z,2.20
2022-11-25T12:41:59.823Z,1.80
2022-11-25T12:47:01.938Z,2.25
2022-11-25T12:52:28.883Z,2.30
2022-11-25T12:57:41.975Z,1.90
2022-11-25T13:03:24.361Z,1.90
2022-11-25T13:08:44.464Z,1.77
2022-11-25T13:14:12.953Z,1.95
2022-11-25T13:19:19.361Z,2.20
2022-11-25T13:24:34.879Z,1.92
2022-11-25T13:29:39.546Z,1.98
2022-11-25T13:34:41.287Z,2.38
2022-11-25T13:39:46.202Z,2.08
2022-11-25T13:44:54.211Z,2.53
2022-11-25T13:50:07.351Z,1.88
2022-11-25T13:55:33.345Z,2.47
2022-11-25T14:00:37.751Z,2.55
2022-11-25T14:05:45.288Z,2.20
2022-11-25T14:11:11.356Z,2.28
2022-11-25T14:16:36.032Z,2.60
2022-11-25T14:22:03.952Z,2.30
2022-11-25T14:27:14.160Z,2.42
2022-11-25T14:32:44.136Z,2.28
2022-11-25T14:37:51.781Z,2.65
2022-11-25T14:43:02.399Z,7.57
2022-11-25T14:48:24.411Z,9.88
2022-11-25T14:53:26.632Z,9.80
2022-11-25T14:58:29.460Z,10.05
2022-11-25T15:03:31.553Z,11.90
2022-11-25T15:08:42.784Z,10.43
2022-11-25T15:13:51.637Z,12.00
2022-11-25T15:18:57.368Z,11.52
2022-11-25T15:23:59.513Z,10.45
2022-11-25T15:29:10.370Z,10.15
2022-11-25T15:34:14.157Z,10.52
2022-11-25T15:39:21.821Z,11.60
2022-11-25T15:44:38.606Z,12.13
2022-11-25T15:49:40.453Z,13.77
2022-11-25T15:54:48.706Z,13.48
2022-11-25T15:59:53.372Z,13.07
2022-11-25T16:05:13.052Z,14.48
2022-11-25T16:10:28.690Z,15.38
2022-11-25T16:15:58.649Z,14.13
2022-11-25T16:21:08.639Z,15.52
2022-11-25T16:26:13.243Z,16.00
2022-11-25T16:31:16.815Z,17.15
2022-11-25T16:36:19.275Z,17.27
2022-11-25T16:41:24.723Z,17.02
2022-11-25T16:46:26.797Z,17.63
2022-11-25T16:51:28.510Z,20.58
2022-11-25T16:56:30.294Z,21.65
2022-11-25T17:01:34.402Z,22.88
2022-11-25T17:06:37.348Z,22.40
2022-11-25T17:11:46.956Z,20.27
2022-11-25T17:16:48.936Z,19.25
2022-11-25T17:21:50.674Z,20.15
2022-11-25T17:27:00.477Z,21.10
2022-11-25T17:32:03.003Z,20.33
2022-11-25T17:37:12.349Z,20.48
2022-11-25T17:42:18.649Z,21.20
2022-11-25T17:47:20.457Z,20.73
2022-11-25T17:52:22.127Z,21.55
2022-11-25T17:57:29.190Z,19.63
2022-11-25T18:02:31.080Z,20.65
2022-11-25T18:07:32.861Z,22.50
2022-11-25T18:12:36.688Z,23.02
2022-11-25T18:17:39.282Z,22.90
2022-11-25T18:22:40.970Z,22.88
2022-11-25T18:27:44.340Z,23.73
2022-11-25T18:32:46.080Z,23.23
2022-11-25T18:37:48.475Z,22.13
2022-11-25T18:42:54.663Z,26.20
2022-11-25T18:47:56.376Z,24.10
2022-11-25T18:52:58.044Z,23.48
2022-11-25T18:58:01.080Z,23.02
2022-11-25T19:03:02.887Z,21.92
2022-11-25T19:08:04.961Z,22.48
2022-11-25T19:13:15.319Z,23.48
2022-11-25T19:18:25.490Z,25.08
2022-11-25T19:23:28.864Z,23.73
2022-11-25T19:28:31.492Z,20.15
2022-11-25T19:33:36.869Z,14.43
2022-11-25T19:38:38.536Z,6.63
2022-11-25T19:43:40.334Z,6.57
2022-11-25T19:48:42.108Z,5.95
2022-11-25T19:53:44.440Z,7.05
2022-11-25T19:58:46.127Z,7.25
2022-11-25T20:03:50.515Z,6.30
2022-11-25T20:08:52.277Z,7.20
2022-11-25T20:13:53.943Z,8.00
2022-11-25T20:18:55.718Z,6.88
2022-11-25T20:23:57.844Z,6.72
2022-11-25T20:28:59.665Z,7.25
2022-11-25T20:34:01.331Z,6.63
2022-11-25T20:39:04.170Z,7.68
2022-11-25T20:44:05.873Z,8.93
2022-11-25T20:49:20.923Z,8.25
2022-11-25T20:54:25.635Z,9.30
2022-11-25T20:59:28.724Z,9.60
2022-11-25T21:04:30.431Z,8.32
2022-11-25T21:09:34.890Z,9.30
2022-11-25T21:14:36.769Z,16.30
2022-11-25T21:19:38.581Z,17.60
2022-11-25T21:24:42.440Z,13.20
2022-11-25T21:29:45.658Z,9.68
2022-11-25T21:34:47.829Z,10.70
2022-11-25T21:39:49.662Z,11.10
2022-11-25T21:44:52.507Z,11.07
2022-11-25T21:49:54.293Z,9.88
2022-11-25T21:54:55.989Z,11.05
2022-11-25T21:59:57.711Z,10.88
2022-11-25T22:04:59.467Z,11.98
2022-11-25T22:10:01.142Z,11.15
2022-11-25T22:15:03.139Z,10.15
2022-11-25T22:20:14.300Z,11.00
2022-11-25T22:25:16.168Z,10.60
2022-11-25T22:30:19.854Z,12.52
2022-11-25T22:35:21.588Z,10.55
2022-11-25T22:40:24.015Z,10.68
2022-11-25T22:45:32.782Z,9.80
2022-11-25T22:50:35.205Z,10.95
2022-11-25T22:55:36.904Z,12.65
2022-11-25T23:00:42.692Z,12.52
2022-11-25T23:05:44.543Z,13.13
2022-11-25T23:10:48.345Z,11.65
2022-11-25T23:15:56.124Z,11.13
2022-11-25T23:20:57.934Z,12.18
2022-11-25T23:25:59.816Z,12.25
2022-11-25T23:31:02.062Z,12.27
2022-11-25T23:36:10.748Z,11.82
2022-11-25T23:41:19.039Z,11.93
2022-11-25T23:46:23.909Z,11.95
2022-11-25T23:51:28.255Z,13.35
2022-11-25T23:56:29.980Z,11.82
